sensor_id;sensor_type;location;lat;lon;timestamp;temperature;humidity
49222;DHT22;35047;37.588;-122.048;2022-11-24T00:00:34;33.10;31.20
49222;DHT22;35047;37.588;-122.048;2022-11-24T00:03:01;33.10;31.60
49222;DHT22;35047;37.588;-122.048;2022-11-24T00:05:29;33.10;31.60
49222;DHT22;35047;37.588;-122.048;2022-11-24T00:07:56;33.10;31.80
49222;DHT22;35047;37.588;-122.048;2022-11-24T00:10:23;33.00;31.80
49222;DHT22;35047;37.588;-122.048;2022-11-24T00:12:50;33.00;31.80
49222;DHT22;35047;37.588;-122.048;2022-11-24T00:15:18;33.10;32.10
49222;DHT22;35047;37.588;-122.048;2022-11-24T00:17:44;33.10;32.00
49222;DHT22;35047;37.588;-122.048;2022-11-24T00:20:11;33.10;32.20
49222;DHT22;35047;37.588;-122.048;2022-11-24T00:22:37;33.00;32.30
49222;DHT22;35047;37.588;-122.048;2022-11-24T00:25:05;32.90;32.50
49222;DHT22;35047;37.588;-122.048;2022-11-24T00:27:31;32.90;32.60
49222;DHT22;35047;37.588;-122.048;2022-11-24T00:29:58;32.90;32.70
49222;DHT22;35047;37.588;-122.048;2022-11-24T00:32:27;32.90;32.70
49222;DHT22;35047;37.588;-122.048;2022-11-24T00:34:54;32.90;32.80
49222;DHT22;35047;37.588;-122.048;2022-11-24T00:37:21;33.00;32.80
49222;DHT22;35047;37.588;-122.048;2022-11-24T00:39:47;32.90;32.80
49222;DHT22;35047;37.588;-122.048;2022-11-24T00:42:13;32.70;32.90
49222;DHT22;35047;37.588;-122.048;2022-11-24T00:44:40;32.60;33.10
49222;DHT22;35047;37.588;-122.048;2022-11-24T00:47:07;32.60;33.20
49222;DHT22;35047;37.588;-122.048;2022-11-24T00:49:33;32.50;33.30
49222;DHT22;35047;37.588;-122.048;2022-11-24T00:52:01;32.30;33.40
49222;DHT22;35047;37.588;-122.048;2022-11-24T00:54:27;32.20;33.50
49222;DHT22;35047;37.588;-122.048;2022-11-24T00:56:54;32.00;33.70
49222;DHT22;35047;37.588;-122.048;2022-11-24T00:59:21;32.10;33.80
49222;DHT22;35047;37.588;-122.048;2022-11-24T01:01:48;31.90;34.00
49222;DHT22;35047;37.588;-122.048;2022-11-24T01:04:15;31.80;34.00
49222;DHT22;35047;37.588;-122.048;2022-11-24T01:06:41;31.90;33.90
49222;DHT22;35047;37.588;-122.048;2022-11-24T01:09:09;31.50;34.10
49222;DHT22;35047;37.588;-122.048;2022-11-24T01:11:36;31.30;34.30
49222;DHT22;35047;37.588;-122.048;2022-11-24T01:14:23;31.10;34.40
49222;DHT22;35047;37.588;-122.048;2022-11-24T01:16:51;30.80;34.70
49222;DHT22;35047;37.588;-122.048;2022-11-24T01:19:17;30.80;34.90
49222;DHT22;35047;37.588;-122.048;2022-11-24T01:21:45;30.60;35.70
49222;DHT22;35047;37.588;-122.048;2022-11-24T01:24:12;30.60;34.90
49222;DHT22;35047;37.588;-122.048;2022-11-24T01:26:39;30.50;35.00
49222;DHT22;35047;37.588;-122.048;2022-11-24T01:29:05;30.40;35.20
49222;DHT22;35047;37.588;-122.048;2022-11-24T01:31:33;30.10;35.30
49222;DHT22;35047;37.588;-122.048;2022-11-24T01:34:01;30.00;35.40
49222;DHT22;35047;37.588;-122.048;2022-11-24T01:36:29;30.10;35.40
49222;DHT22;35047;37.588;-122.048;2022-11-24T01:38:56;30.20;35.30
49222;DHT22;35047;37.588;-122.048;2022-11-24T01:41:24;30.10;35.30
49222;DHT22;35047;37.588;-122.048;2022-11-24T01:43:52;30.00;35.40
49222;DHT22;35047;37.588;-122.048;2022-11-24T01:46:33;30.00;35.40
49222;DHT22;35047;37.588;-122.048;2022-11-24T01:49:11;29.80;35.40
49222;DHT22;35047;37.588;-122.048;2022-11-24T01:51:46;29.70;35.60
49222;DHT22;35047;37.588;-122.048;2022-11-24T01:54:19;29.70;35.40
49222;DHT22;35047;37.588;-122.048;2022-11-24T01:56:51;29.90;35.30
49222;DHT22;35047;37.588;-122.048;2022-11-24T01:59:19;29.80;35.30
49222;DHT22;35047;37.588;-122.048;2022-11-24T02:01:49;29.80;35.30
49222;DHT22;35047;37.588;-122.048;2022-11-24T02:04:19;29.70;35.30
49222;DHT22;35047;37.588;-122.048;2022-11-24T02:06:49;29.70;35.50
49222;DHT22;35047;37.588;-122.048;2022-11-24T02:09:30;29.70;35.60
49222;DHT22;35047;37.588;-122.048;2022-11-24T02:11:58;29.50;35.60
49222;DHT22;35047;37.588;-122.048;2022-11-24T02:14:27;29.40;35.60
49222;DHT22;35047;37.588;-122.048;2022-11-24T02:27:35;28.50;36.80
49222;DHT22;35047;37.588;-122.048;2022-11-24T02:30:03;27.80;37.10
49222;DHT22;35047;37.588;-122.048;2022-11-24T02:32:31;26.70;37.00
49222;DHT22;35047;37.588;-122.048;2022-11-24T02:35:03;24.40;39.30
49222;DHT22;35047;37.588;-122.048;2022-11-24T02:37:30;23.10;43.20
49222;DHT22;35047;37.588;-122.048;2022-11-24T02:39:56;24.80;42.00
49222;DHT22;35047;37.588;-122.048;2022-11-24T02:42:27;25.30;41.10
49222;DHT22;35047;37.588;-122.048;2022-11-24T02:44:58;25.80;40.50
49222;DHT22;35047;37.588;-122.048;2022-11-24T02:47:25;25.30;40.60
49222;DHT22;35047;37.588;-122.048;2022-11-24T02:49:52;25.10;40.70
49222;DHT22;35047;37.588;-122.048;2022-11-24T02:52:19;24.10;40.20
49222;DHT22;35047;37.588;-122.048;2022-11-24T02:54:46;22.70;44.50
49222;DHT22;35047;37.588;-122.048;2022-11-24T02:59:41;21.30;46.70
49222;DHT22;35047;37.588;-122.048;2022-11-24T03:02:08;21.90;46.30
49222;DHT22;35047;37.588;-122.048;2022-11-24T03:04:35;20.50;47.40
49222;DHT22;35047;37.588;-122.048;2022-11-24T03:07:02;19.80;49.20
49222;DHT22;35047;37.588;-122.048;2022-11-24T03:09:29;21.30;49.60
49222;DHT22;35047;37.588;-122.048;2022-11-24T03:11:56;20.80;48.30
49222;DHT22;35047;37.588;-122.048;2022-11-24T03:14:22;20.70;49.50
49222;DHT22;35047;37.588;-122.048;2022-11-24T03:16:50;22.30;47.30
49222;DHT22;35047;37.588;-122.048;2022-11-24T03:19:16;21.50;45.70
49222;DHT22;35047;37.588;-122.048;2022-11-24T03:21:43;20.00;49.20
49222;DHT22;35047;37.588;-122.048;2022-11-24T03:24:09;19.90;52.10
49222;DHT22;35047;37.588;-122.048;2022-11-24T03:26:36;22.10;48.40
49222;DHT22;35047;37.588;-122.048;2022-11-24T03:29:03;23.50;45.70
49222;DHT22;35047;37.588;-122.048;2022-11-24T03:31:30;23.60;44.80
49222;DHT22;35047;37.588;-122.048;2022-11-24T03:33:56;24.50;42.80
49222;DHT22;35047;37.588;-122.048;2022-11-24T03:36:23;23.40;44.00
49222;DHT22;35047;37.588;-122.048;2022-11-24T03:38:50;22.00;45.70
49222;DHT22;35047;37.588;-122.048;2022-11-24T03:41:17;22.20;47.20
49222;DHT22;35047;37.588;-122.048;2022-11-24T03:43:43;24.00;44.80
49222;DHT22;35047;37.588;-122.048;2022-11-24T03:46:11;24.10;43.30
49222;DHT22;35047;37.588;-122.048;2022-11-24T03:48:37;22.60;46.00
49222;DHT22;35047;37.588;-122.048;2022-11-24T03:51:04;23.50;45.00
49222;DHT22;35047;37.588;-122.048;2022-11-24T03:53:32;23.10;44.70
49222;DHT22;35047;37.588;-122.048;2022-11-24T03:55:59;23.50;44.70
49222;DHT22;35047;37.588;-122.048;2022-11-24T03:58:27;23.40;45.30
49222;DHT22;35047;37.588;-122.048;2022-11-24T04:00:54;23.20;45.40
49222;DHT22;35047;37.588;-122.048;2022-11-24T04:03:21;23.50;45.20
49222;DHT22;35047;37.588;-122.048;2022-11-24T04:05:48;24.00;44.10
49222;DHT22;35047;37.588;-122.048;2022-11-24T04:08:15;24.00;44.30
49222;DHT22;35047;37.588;-122.048;2022-11-24T04:10:42;25.10;42.80
49222;DHT22;35047;37.588;-122.048;2022-11-24T04:13:16;25.50;42.40
49222;DHT22;35047;37.588;-122.048;2022-11-24T04:15:43;25.90;41.70
49222;DHT22;35047;37.588;-122.048;2022-11-24T04:18:12;26.20;41.40
49222;DHT22;35047;37.588;-122.048;2022-11-24T04:20:38;26.00;40.80
49222;DHT22;35047;37.588;-122.048;2022-11-24T04:23:06;25.80;41.60
49222;DHT22;35047;37.588;-122.048;2022-11-24T04:25:34;25.80;41.30
49222;DHT22;35047;37.588;-122.048;2022-11-24T04:28:01;26.20;41.40
49222;DHT22;35047;37.588;-122.048;2022-11-24T04:30:29;25.60;41.90
49222;DHT22;35047;37.588;-122.048;2022-11-24T04:32:56;25.80;41.70
49222;DHT22;35047;37.588;-122.048;2022-11-24T04:35:25;24.90;42.10
49222;DHT22;35047;37.588;-122.048;2022-11-24T04:37:51;24.90;42.90
49222;DHT22;35047;37.588;-122.048;2022-11-24T04:40:18;25.30;43.20
49222;DHT22;35047;37.588;-122.048;2022-11-24T04:42:54;25.30;43.00
49222;DHT22;35047;37.588;-122.048;2022-11-24T04:45:22;24.60;43.50
49222;DHT22;35047;37.588;-122.048;2022-11-24T04:47:50;24.90;43.70
49222;DHT22;35047;37.588;-122.048;2022-11-24T04:50:17;25.40;43.40
49222;DHT22;35047;37.588;-122.048;2022-11-24T04:52:43;25.60;43.00
49222;DHT22;35047;37.588;-122.048;2022-11-24T04:55:11;24.10;44.30
49222;DHT22;35047;37.588;-122.048;2022-11-24T04:57:37;24.20;44.20
49222;DHT22;35047;37.588;-122.048;2022-11-24T05:00:04;24.80;44.10
49222;DHT22;35047;37.588;-122.048;2022-11-24T05:02:31;23.70;45.60
49222;DHT22;35047;37.588;-122.048;2022-11-24T05:04:59;24.70;44.40
49222;DHT22;35047;37.588;-122.048;2022-11-24T05:07:25;24.30;43.80
49222;DHT22;35047;37.588;-122.048;2022-11-24T05:09:53;22.10;48.30
49222;DHT22;35047;37.588;-122.048;2022-11-24T05:12:38;23.50;46.90
49222;DHT22;35047;37.588;-122.048;2022-11-24T05:15:05;22.70;48.00
49222;DHT22;35047;37.588;-122.048;2022-11-24T05:17:36;23.60;46.80
49222;DHT22;35047;37.588;-122.048;2022-11-24T05:20:05;23.90;45.90
49222;DHT22;35047;37.588;-122.048;2022-11-24T05:22:32;21.80;49.30
49222;DHT22;35047;37.588;-122.048;2022-11-24T05:24:58;22.80;48.10
49222;DHT22;35047;37.588;-122.048;2022-11-24T05:27:26;21.60;48.40
49222;DHT22;35047;37.588;-122.048;2022-11-24T05:29:53;21.50;50.40
49222;DHT22;35047;37.588;-122.048;2022-11-24T05:32:19;22.40;48.50
49222;DHT22;35047;37.588;-122.048;2022-11-24T05:34:47;21.40;48.00
49222;DHT22;35047;37.588;-122.048;2022-11-24T05:37:14;20.50;52.30
49222;DHT22;35047;37.588;-122.048;2022-11-24T05:39:42;21.70;49.30
49222;DHT22;35047;37.588;-122.048;2022-11-24T05:42:09;21.90;49.60
49222;DHT22;35047;37.588;-122.048;2022-11-24T05:44:54;22.20;48.90
49222;DHT22;35047;37.588;-122.048;2022-11-24T05:47:22;23.00;47.10
49222;DHT22;35047;37.588;-122.048;2022-11-24T05:49:49;23.70;46.20
49222;DHT22;35047;37.588;-122.048;2022-11-24T05:52:16;20.90;48.70
49222;DHT22;35047;37.588;-122.048;2022-11-24T05:54:43;22.10;49.40
49222;DHT22;35047;37.588;-122.048;2022-11-24T05:57:09;23.10;47.40
49222;DHT22;35047;37.588;-122.048;2022-11-24T05:59:36;23.20;46.30
49222;DHT22;35047;37.588;-122.048;2022-11-24T06:02:02;21.50;49.30
49222;DHT22;35047;37.588;-122.048;2022-11-24T06:04:29;20.70;49.30
49222;DHT22;35047;37.588;-122.048;2022-11-24T06:06:56;19.80;52.20
49222;DHT22;35047;37.588;-122.048;2022-11-24T06:09:22;20.20;53.50
49222;DHT22;35047;37.588;-122.048;2022-11-24T06:11:50;21.80;50.10
49222;DHT22;35047;37.588;-122.048;2022-11-24T06:14:17;21.90;48.00
49222;DHT22;35047;37.588;-122.048;2022-11-24T06:16:43;19.40;52.60
49222;DHT22;35047;37.588;-122.048;2022-11-24T06:19:11;20.20;53.50
49222;DHT22;35047;37.588;-122.048;2022-11-24T06:21:38;20.10;51.00
49222;DHT22;35047;37.588;-122.048;2022-11-24T06:24:05;20.50;52.50
49222;DHT22;35047;37.588;-122.048;2022-11-24T06:26:32;21.20;51.60
49222;DHT22;35047;37.588;-122.048;2022-11-24T06:28:59;21.00;51.20
49222;DHT22;35047;37.588;-122.048;2022-11-24T06:31:26;21.00;50.50
49222;DHT22;35047;37.588;-122.048;2022-11-24T06:33:53;21.70;49.70
49222;DHT22;35047;37.588;-122.048;2022-11-24T06:36:20;22.60;48.40
49222;DHT22;35047;37.588;-122.048;2022-11-24T06:38:47;22.70;47.60
49222;DHT22;35047;37.588;-122.048;2022-11-24T06:41:14;23.00;47.00
49222;DHT22;35047;37.588;-122.048;2022-11-24T06:43:41;22.40;47.10
49222;DHT22;35047;37.588;-122.048;2022-11-24T06:46:09;23.20;46.60
49222;DHT22;35047;37.588;-122.048;2022-11-24T06:48:35;22.90;46.10
49222;DHT22;35047;37.588;-122.048;2022-11-24T06:51:04;23.10;46.20
49222;DHT22;35047;37.588;-122.048;2022-11-24T06:53:32;21.80;46.40
49222;DHT22;35047;37.588;-122.048;2022-11-24T06:56:04;21.90;48.40
49222;DHT22;35047;37.588;-122.048;2022-11-24T06:58:31;20.00;48.80
49222;DHT22;35047;37.588;-122.048;2022-11-24T07:00:58;19.80;52.70
49222;DHT22;35047;37.588;-122.048;2022-11-24T07:03:25;21.20;50.40
49222;DHT22;35047;37.588;-122.048;2022-11-24T07:05:58;21.80;49.10
49222;DHT22;35047;37.588;-122.048;2022-11-24T07:08:25;21.50;48.70
49222;DHT22;35047;37.588;-122.048;2022-11-24T07:10:52;21.20;48.40
49222;DHT22;35047;37.588;-122.048;2022-11-24T07:13:19;21.50;49.00
49222;DHT22;35047;37.588;-122.048;2022-11-24T07:15:46;22.40;47.60
49222;DHT22;35047;37.588;-122.048;2022-11-24T07:18:13;20.50;47.90
49222;DHT22;35047;37.588;-122.048;2022-11-24T07:20:40;19.10;53.20
49222;DHT22;35047;37.588;-122.048;2022-11-24T07:23:07;20.70;51.30
49222;DHT22;35047;37.588;-122.048;2022-11-24T07:25:35;18.90;53.40
49222;DHT22;35047;37.588;-122.048;2022-11-24T07:28:03;20.00;50.30
49222;DHT22;35047;37.588;-122.048;2022-11-24T07:30:30;19.20;53.60
49222;DHT22;35047;37.588;-122.048;2022-11-24T07:33:02;20.70;50.50
49222;DHT22;35047;37.588;-122.048;2022-11-24T07:35:29;20.50;48.30
49222;DHT22;35047;37.588;-122.048;2022-11-24T07:37:57;20.60;50.10
49222;DHT22;35047;37.588;-122.048;2022-11-24T07:40:25;19.50;49.90
49222;DHT22;35047;37.588;-122.048;2022-11-24T07:42:52;17.20;54.40
49222;DHT22;35047;37.588;-122.048;2022-11-24T07:45:19;19.10;54.00
49222;DHT22;35047;37.588;-122.048;2022-11-24T07:47:46;19.20;51.80
49222;DHT22;35047;37.588;-122.048;2022-11-24T07:50:13;17.20;56.60
49222;DHT22;35047;37.588;-122.048;2022-11-24T07:52:40;18.70;53.90
49222;DHT22;35047;37.588;-122.048;2022-11-24T07:55:07;19.90;52.60
49222;DHT22;35047;37.588;-122.048;2022-11-24T07:57:34;19.90;50.10
49222;DHT22;35047;37.588;-122.048;2022-11-24T08:00:02;18.70;53.50
49222;DHT22;35047;37.588;-122.048;2022-11-24T08:02:29;18.70;51.80
49222;DHT22;35047;37.588;-122.048;2022-11-24T08:04:56;17.30;54.90
49222;DHT22;35047;37.588;-122.048;2022-11-24T08:07:23;19.20;54.30
49222;DHT22;35047;37.588;-122.048;2022-11-24T08:09:50;18.20;54.30
49222;DHT22;35047;37.588;-122.048;2022-11-24T08:12:18;19.00;53.70
49222;DHT22;35047;37.588;-122.048;2022-11-24T08:14:50;19.70;50.10
49222;DHT22;35047;37.588;-122.048;2022-11-24T08:17:17;19.90;51.30
49222;DHT22;35047;37.588;-122.048;2022-11-24T08:19:44;21.10;49.30
49222;DHT22;35047;37.588;-122.048;2022-11-24T08:22:13;20.80;47.40
49222;DHT22;35047;37.588;-122.048;2022-11-24T08:24:39;20.10;50.40
49222;DHT22;35047;37.588;-122.048;2022-11-24T08:27:12;21.40;48.00
49222;DHT22;35047;37.588;-122.048;2022-11-24T08:29:39;21.70;48.00
49222;DHT22;35047;37.588;-122.048;2022-11-24T08:32:06;20.50;47.10
49222;DHT22;35047;37.588;-122.048;2022-11-24T08:34:33;19.80;51.10
49222;DHT22;35047;37.588;-122.048;2022-11-24T08:37:02;20.00;48.90
49222;DHT22;35047;37.588;-122.048;2022-11-24T08:39:28;17.50;52.60
49222;DHT22;35047;37.588;-122.048;2022-11-24T08:41:55;19.20;53.40
49222;DHT22;35047;37.588;-122.048;2022-11-24T08:44:23;20.10;51.20
49222;DHT22;35047;37.588;-122.048;2022-11-24T08:46:49;21.00;49.20
49222;DHT22;35047;37.588;-122.048;2022-11-24T08:49:17;21.10;47.40
49222;DHT22;35047;37.588;-122.048;2022-11-24T08:51:44;20.80;48.30
49222;DHT22;35047;37.588;-122.048;2022-11-24T08:54:13;19.30;51.50
49222;DHT22;35047;37.588;-122.048;2022-11-24T08:56:44;20.10;48.50
49222;DHT22;35047;37.588;-122.048;2022-11-24T08:59:12;18.20;52.50
49222;DHT22;35047;37.588;-122.048;2022-11-24T09:01:39;18.70;52.60
49222;DHT22;35047;37.588;-122.048;2022-11-24T09:04:06;19.50;50.80
49222;DHT22;35047;37.588;-122.048;2022-11-24T09:06:33;20.20;49.90
49222;DHT22;35047;37.588;-122.048;2022-11-24T09:09:01;20.50;49.40
49222;DHT22;35047;37.588;-122.048;2022-11-24T09:11:27;20.00;48.30
49222;DHT22;35047;37.588;-122.048;2022-11-24T09:13:54;21.00;48.40
49222;DHT22;35047;37.588;-122.048;2022-11-24T09:16:25;19.80;48.90
49222;DHT22;35047;37.588;-122.048;2022-11-24T09:19:00;20.90;48.70
49222;DHT22;35047;37.588;-122.048;2022-11-24T09:21:28;21.20;48.10
49222;DHT22;35047;37.588;-122.048;2022-11-24T09:23:55;21.40;47.20
49222;DHT22;35047;37.588;-122.048;2022-11-24T09:26:29;21.20;46.70
49222;DHT22;35047;37.588;-122.048;2022-11-24T09:28:57;19.70;50.00
49222;DHT22;35047;37.588;-122.048;2022-11-24T09:31:29;20.30;49.10
49222;DHT22;35047;37.588;-122.048;2022-11-24T09:33:56;20.10;49.60
49222;DHT22;35047;37.588;-122.048;2022-11-24T09:36:23;20.30;47.50
49222;DHT22;35047;37.588;-122.048;2022-11-24T09:38:50;20.40;49.30
49222;DHT22;35047;37.588;-122.048;2022-11-24T09:41:33;19.50;49.20
49222;DHT22;35047;37.588;-122.048;2022-11-24T09:47:07;20.90;48.30
49222;DHT22;35047;37.588;-122.048;2022-11-24T09:49:53;20.80;47.60
49222;DHT22;35047;37.588;-122.048;2022-11-24T10:00:49;19.80;48.90
49222;DHT22;35047;37.588;-122.048;2022-11-24T10:03:41;19.20;50.10
49222;DHT22;35047;37.588;-122.048;2022-11-24T10:06:34;18.20;51.00
49222;DHT22;35047;37.588;-122.048;2022-11-24T10:09:09;17.20;54.30
49222;DHT22;35047;37.588;-122.048;2022-11-24T10:17:23;19.30;50.60
49222;DHT22;35047;37.588;-122.048;2022-11-24T10:22:50;18.90;51.00
49222;DHT22;35047;37.588;-122.048;2022-11-24T10:25:25;18.60;51.70
49222;DHT22;35047;37.588;-122.048;2022-11-24T10:28:02;18.10;50.70
49222;DHT22;35047;37.588;-122.048;2022-11-24T10:30:30;19.30;50.90
49222;DHT22;35047;37.588;-122.048;2022-11-24T10:33:00;19.50;49.30
49222;DHT22;35047;37.588;-122.048;2022-11-24T10:35:43;18.70;49.80
49222;DHT22;35047;37.588;-122.048;2022-11-24T10:40:51;19.40;49.60
49222;DHT22;35047;37.588;-122.048;2022-11-24T10:43:19;19.90;49.90
49222;DHT22;35047;37.588;-122.048;2022-11-24T10:45:47;20.60;48.70
49222;DHT22;35047;37.588;-122.048;2022-11-24T10:48:37;21.30;47.60
49222;DHT22;35047;37.588;-122.048;2022-11-24T10:51:38;20.40;47.10
49222;DHT22;35047;37.588;-122.048;2022-11-24T10:54:15;17.80;52.00
49222;DHT22;35047;37.588;-122.048;2022-11-24T10:56:46;19.40;51.00
49222;DHT22;35047;37.588;-122.048;2022-11-24T10:59:33;19.90;50.60
49222;DHT22;35047;37.588;-122.048;2022-11-24T11:02:02;19.40;50.70
49222;DHT22;35047;37.588;-122.048;2022-11-24T11:04:51;20.40;49.30
49222;DHT22;35047;37.588;-122.048;2022-11-24T11:07:20;18.50;49.50
49222;DHT22;35047;37.588;-122.048;2022-11-24T11:09:48;18.10;53.90
49222;DHT22;35047;37.588;-122.048;2022-11-24T11:12:23;19.50;51.90
49222;DHT22;35047;37.588;-122.048;2022-11-24T11:14:52;19.60;50.80
49222;DHT22;35047;37.588;-122.048;2022-11-24T11:17:36;20.50;49.20
49222;DHT22;35047;37.588;-122.048;2022-11-24T11:20:30;20.80;48.70
49222;DHT22;35047;37.588;-122.048;2022-11-24T11:23:02;21.20;47.80
49222;DHT22;35047;37.588;-122.048;2022-11-24T11:25:39;21.50;47.30
49222;DHT22;35047;37.588;-122.048;2022-11-24T11:28:28;21.40;46.90
49222;DHT22;35047;37.588;-122.048;2022-11-24T11:31:01;21.20;47.70
49222;DHT22;35047;37.588;-122.048;2022-11-24T11:33:30;21.50;47.20
49222;DHT22;35047;37.588;-122.048;2022-11-24T11:38:34;16.40;52.90
49222;DHT22;35047;37.588;-122.048;2022-11-24T11:41:02;18.10;54.60
49222;DHT22;35047;37.588;-122.048;2022-11-24T11:43:34;18.10;53.60
49222;DHT22;35047;37.588;-122.048;2022-11-24T11:46:20;18.10;52.90
49222;DHT22;35047;37.588;-122.048;2022-11-24T11:48:47;19.50;50.90
49222;DHT22;35047;37.588;-122.048;2022-11-24T11:57:01;19.10;48.10
49222;DHT22;35047;37.588;-122.048;2022-11-24T12:02:39;19.90;49.70
49222;DHT22;35047;37.588;-122.048;2022-11-24T12:11:16;17.80;54.20
49222;DHT22;35047;37.588;-122.048;2022-11-24T12:16:39;18.60;52.70
49222;DHT22;35047;37.588;-122.048;2022-11-24T12:19:23;19.00;51.80
49222;DHT22;35047;37.588;-122.048;2022-11-24T12:24:57;17.20;55.00
49222;DHT22;35047;37.588;-122.048;2022-11-24T12:30:21;19.80;50.10
49222;DHT22;35047;37.588;-122.048;2022-11-24T12:35:42;20.20;49.00
49222;DHT22;35047;37.588;-122.048;2022-11-24T12:38:16;20.20;47.30
49222;DHT22;35047;37.588;-122.048;2022-11-24T12:43:56;19.10;50.70
49222;DHT22;35047;37.588;-122.048;2022-11-24T12:46:46;19.20;50.60
49222;DHT22;35047;37.588;-122.048;2022-11-24T12:49:36;20.00;49.10
49222;DHT22;35047;37.588;-122.048;2022-11-24T12:52:20;20.20;48.20
49222;DHT22;35047;37.588;-122.048;2022-11-24T12:54:48;20.20;49.10
49222;DHT22;35047;37.588;-122.048;2022-11-24T12:57:28;20.20;48.70
49222;DHT22;35047;37.588;-122.048;2022-11-24T13:00:03;18.90;47.70
49222;DHT22;35047;37.588;-122.048;2022-11-24T13:06:06;17.60;54.70
49222;DHT22;35047;37.588;-122.048;2022-11-24T13:08:36;16.90;55.00
49222;DHT22;35047;37.588;-122.048;2022-11-24T13:13:59;16.80;51.90
49222;DHT22;35047;37.588;-122.048;2022-11-24T13:16:28;17.60;52.80
49222;DHT22;35047;37.588;-122.048;2022-11-24T13:18:59;16.60;54.50
49222;DHT22;35047;37.588;-122.048;2022-11-24T13:26:46;18.20;52.60
49222;DHT22;35047;37.588;-122.048;2022-11-24T13:29:36;19.10;51.20
49222;DHT22;35047;37.588;-122.048;2022-11-24T13:58:32;18.30;51.10
49222;DHT22;35047;37.588;-122.048;2022-11-24T14:06:15;19.40;49.60
49222;DHT22;35047;37.588;-122.048;2022-11-24T14:08:44;18.70;50.60
49222;DHT22;35047;37.588;-122.048;2022-11-24T14:11:14;17.70;52.60
49222;DHT22;35047;37.588;-122.048;2022-11-24T14:13:41;17.10;51.30
49222;DHT22;35047;37.588;-122.048;2022-11-24T14:18:37;17.70;51.40
49222;DHT22;35047;37.588;-122.048;2022-11-24T14:21:24;18.30;50.30
49222;DHT22;35047;37.588;-122.048;2022-11-24T14:23:57;18.80;50.80
49222;DHT22;35047;37.588;-122.048;2022-11-24T14:26:34;19.50;49.50
49222;DHT22;35047;37.588;-122.048;2022-11-24T14:29:18;19.40;49.30
49222;DHT22;35047;37.588;-122.048;2022-11-24T14:31:56;18.00;48.60
49222;DHT22;35047;37.588;-122.048;2022-11-24T14:34:25;17.00;51.60
49222;DHT22;35047;37.588;-122.048;2022-11-24T14:36:54;18.00;51.60
49222;DHT22;35047;37.588;-122.048;2022-11-24T14:39:23;18.00;51.60
49222;DHT22;35047;37.588;-122.048;2022-11-24T14:42:16;18.60;50.50
49222;DHT22;35047;37.588;-122.048;2022-11-24T14:44:50;18.70;49.50
49222;DHT22;35047;37.588;-122.048;2022-11-24T14:47:34;19.20;48.90
49222;DHT22;35047;37.588;-122.048;2022-11-24T14:50:11;19.90;48.10
49222;DHT22;35047;37.588;-122.048;2022-11-24T14:52:45;19.40;48.70
49222;DHT22;35047;37.588;-122.048;2022-11-24T14:55:30;18.30;49.10
49222;DHT22;35047;37.588;-122.048;2022-11-24T14:57:59;19.40;48.90
49222;DHT22;35047;37.588;-122.048;2022-11-24T15:00:31;18.00;48.20
49222;DHT22;35047;37.588;-122.048;2022-11-24T15:05:52;16.80;54.00
49222;DHT22;35047;37.588;-122.048;2022-11-24T15:08:21;16.90;52.50
49222;DHT22;35047;37.588;-122.048;2022-11-24T15:10:58;16.50;52.00
49222;DHT22;35047;37.588;-122.048;2022-11-24T15:13:29;16.50;53.90
49222;DHT22;35047;37.588;-122.048;2022-11-24T15:16:00;18.20;52.20
49222;DHT22;35047;37.588;-122.048;2022-11-24T15:18:44;19.10;49.70
49222;DHT22;35047;37.588;-122.048;2022-11-24T15:21:13;19.40;49.70
49222;DHT22;35047;37.588;-122.048;2022-11-24T15:23:40;18.00;51.50
49222;DHT22;35047;37.588;-122.048;2022-11-24T15:28:37;16.40;54.40
49222;DHT22;35047;37.588;-122.048;2022-11-24T15:31:09;17.60;53.70
49222;DHT22;35047;37.588;-122.048;2022-11-24T15:33:40;18.60;51.40
49222;DHT22;35047;37.588;-122.048;2022-11-24T15:36:08;19.10;50.60
49222;DHT22;35047;37.588;-122.048;2022-11-24T15:38:38;19.60;49.10
49222;DHT22;35047;37.588;-122.048;2022-11-24T15:41:20;19.50;49.70
49222;DHT22;35047;37.588;-122.048;2022-11-24T15:43:47;18.90;50.60
49222;DHT22;35047;37.588;-122.048;2022-11-24T15:46:14;18.60;51.40
49222;DHT22;35047;37.588;-122.048;2022-11-24T15:48:42;19.70;49.60
49222;DHT22;35047;37.588;-122.048;2022-11-24T15:51:10;19.60;50.10
49222;DHT22;35047;37.588;-122.048;2022-11-24T15:53:46;19.30;50.00
49222;DHT22;35047;37.588;-122.048;2022-11-24T15:56:21;20.10;49.40
49222;DHT22;35047;37.588;-122.048;2022-11-24T15:58:48;19.30;51.10
49222;DHT22;35047;37.588;-122.048;2022-11-24T16:01:15;19.90;49.30
49222;DHT22;35047;37.588;-122.048;2022-11-24T16:03:42;20.50;48.90
49222;DHT22;35047;37.588;-122.048;2022-11-24T16:06:12;19.50;51.00
49222;DHT22;35047;37.588;-122.048;2022-11-24T16:08:41;20.50;49.60
49222;DHT22;35047;37.588;-122.048;2022-11-24T16:11:08;21.10;48.70
49222;DHT22;35047;37.588;-122.048;2022-11-24T16:13:35;19.10;50.40
49222;DHT22;35047;37.588;-122.048;2022-11-24T16:16:02;19.00;52.70
49222;DHT22;35047;37.588;-122.048;2022-11-24T16:18:28;19.30;52.70
49222;DHT22;35047;37.588;-122.048;2022-11-24T16:20:57;18.40;54.00
49222;DHT22;35047;37.588;-122.048;2022-11-24T16:23:23;17.90;55.80
49222;DHT22;35047;37.588;-122.048;2022-11-24T16:25:50;18.40;55.80
49222;DHT22;35047;37.588;-122.048;2022-11-24T16:28:17;18.60;55.80
49222;DHT22;35047;37.588;-122.048;2022-11-24T16:30:48;18.80;55.70
49222;DHT22;35047;37.588;-122.048;2022-11-24T16:33:16;18.20;56.20
49222;DHT22;35047;37.588;-122.048;2022-11-24T16:35:46;17.20;60.30
49222;DHT22;35047;37.588;-122.048;2022-11-24T16:38:20;17.10;61.80
49222;DHT22;35047;37.588;-122.048;2022-11-24T16:40:53;18.10;60.40
49222;DHT22;35047;37.588;-122.048;2022-11-24T16:43:24;18.30;57.00
49222;DHT22;35047;37.588;-122.048;2022-11-24T16:46:15;18.20;60.70
49222;DHT22;35047;37.588;-122.048;2022-11-24T16:48:43;18.90;56.60
49222;DHT22;35047;37.588;-122.048;2022-11-24T16:51:11;19.20;58.70
49222;DHT22;35047;37.588;-122.048;2022-11-24T16:53:39;19.90;55.50
49222;DHT22;35047;37.588;-122.048;2022-11-24T16:56:06;20.30;52.60
49222;DHT22;35047;37.588;-122.048;2022-11-24T16:58:35;20.50;53.30
49222;DHT22;35047;37.588;-122.048;2022-11-24T17:01:05;20.60;52.40
49222;DHT22;35047;37.588;-122.048;2022-11-24T17:03:34;20.60;52.30